Terminal Aerodrome Forecast
Issued by NWS Louisville, KY

Home | Current Version | Previous Version | Text Only | Print | Product List | Glossary On
Versions: 1 2 3 4 5 6 7 8 9 10 11 12 13
000
FTUS43 KLMK 301734
TAFSDF
TAF
KSDF 301734Z 3018/3124 21008KT P6SM SCT035 BKN180
     FM302000 22007KT P6SM VCSH BKN035 BKN150
     FM310100 19004KT P6SM SCT080 SCT150
     FM311100 VRB03KT 6SM BR SCT100
     FM311300 23004KT P6SM SCT040 SCT100=

USA.gov is the U.S. government's official web portal to all federal, state and local government web resources and services.